weather.gov     
National Weather Service

Terminal Aerodrome Forecast
NWS Homepage
This page is being discontinued on March 12, 2014.
The same data is available at this site. Please update your bookmarks.
Thank you, and we apologize for the inconvenience.
Please send an email to SR-SRH.Webmaster@noaa.gov with any concerns.


Current Version
Previous Version:    01  02  03  04  05  06  07  08  09  10  11  12  13  14  15  16  17  18  19  20  21  22  23  24  25  26  27  28  29  30  
   31  32  33  34  35  36  37  
[Printable]
135
FTUS43 KDTX 312339
TAFPTK
TAF
KPTK 312339Z 0100/0124 22010KT P6SM SCT025 BKN045
      TEMPO 0100/0102 BKN025
     FM010200 23005KT P6SM OVC025
     FM010900 03010KT 2SM -SN OVC015
     FM011500 04012KT 1SM -SN OVC010
     FM012000 04014KT 3/4SM -SN OVC008=




135
FTUS43 KDTX 312339
TAFPTK
TAF
KPTK 312339Z 0100/0124 22010KT P6SM SCT025 BKN045
      TEMPO 0100/0102 BKN025
     FM010200 23005KT P6SM OVC025
     FM010900 03010KT 2SM -SN OVC015
     FM011500 04012KT 1SM -SN OVC010
     FM012000 04014KT 3/4SM -SN OVC008=


U.S. Dept. of Commerce
NOAA National Weather Service
1325 East West Highway
Silver Spring, MD 20910
E-mail: w-nws.webmaster@noaa.gov
Page last modified: May 16, 2007
NATIONAL WEATHER SERVICE: for Safety, for Work, for Fun - FOR LIFE